createdAt,value
2023-01-15T00:01:01.039Z,9.98
2023-01-15T00:03:29.093Z,10.02
2023-01-15T00:05:55.744Z,9.97
2023-01-15T00:08:22.531Z,10.00
2023-01-15T00:10:49.131Z,10.01
2023-01-15T00:13:15.757Z,10.05
2023-01-15T00:15:42.598Z,10.03
2023-01-15T00:18:10.365Z,9.99
2023-01-15T00:20:37.010Z,10.08
2023-01-15T00:23:03.601Z,10.11
2023-01-15T00:25:48.552Z,10.07
2023-01-15T00:28:15.203Z,10.10
2023-01-15T00:30:46.010Z,10.09
2023-01-15T00:33:12.595Z,10.17
2023-01-15T00:35:39.647Z,10.19
2023-01-15T00:38:07.159Z,10.22
2023-01-15T00:40:34.204Z,10.24
2023-01-15T00:43:00.880Z,10.25
2023-01-15T00:45:27.542Z,10.22
2023-01-15T00:47:54.356Z,10.24
2023-01-15T00:50:21.042Z,10.14
2023-01-15T00:52:47.738Z,10.17
2023-01-15T00:55:14.382Z,10.22
2023-01-15T00:57:41.100Z,10.24
2023-01-15T01:00:08.448Z,10.25
2023-01-15T01:02:35.181Z,10.31
2023-01-15T01:05:01.905Z,10.37
2023-01-15T01:07:30.534Z,10.24
2023-01-15T01:09:57.152Z,10.21
2023-01-15T01:12:23.823Z,10.23
2023-01-15T01:14:50.499Z,10.19
2023-01-15T01:17:17.194Z,10.17
2023-01-15T01:19:43.868Z,10.28
2023-01-15T01:22:10.475Z,10.16
2023-01-15T01:24:37.142Z,10.25
2023-01-15T01:27:03.863Z,10.20
2023-01-15T01:29:30.474Z,10.14
2023-01-15T01:31:57.264Z,10.20
2023-01-15T01:34:24.221Z,10.27
2023-01-15T01:36:50.920Z,10.24
2023-01-15T01:39:19.441Z,10.16
2023-01-15T01:41:47.081Z,10.21
2023-01-15T01:44:33.516Z,10.25
2023-01-15T01:47:03.219Z,10.25
2023-01-15T01:49:30.867Z,10.30
2023-01-15T01:52:07.715Z,10.24
2023-01-15T01:54:38.148Z,10.32
2023-01-15T01:57:06.554Z,10.26
2023-01-15T01:59:33.566Z,10.20
2023-01-15T02:02:00.788Z,10.15
2023-01-15T02:04:29.312Z,10.14
2023-01-15T02:06:57.640Z,10.16
2023-01-15T02:09:24.976Z,10.14
2023-01-15T02:11:57.483Z,10.16
2023-01-15T02:14:38.810Z,10.22
2023-01-15T02:17:16.701Z,10.15
2023-01-15T02:20:09.271Z,10.17
2023-01-15T02:22:53.473Z,10.16
2023-01-15T02:25:33.800Z,10.18
2023-01-15T02:28:13.131Z,10.23
2023-01-15T02:30:48.965Z,10.24
2023-01-15T02:33:35.434Z,10.22
2023-01-15T02:36:06.646Z,10.27
2023-01-15T02:38:46.214Z,10.14
2023-01-15T02:41:18.451Z,10.23
2023-01-15T02:43:57.822Z,10.15
2023-01-15T02:46:30.690Z,10.17
2023-01-15T02:49:00.375Z,10.11
2023-01-15T02:51:44.795Z,10.15
2023-01-15T02:54:15.665Z,10.24
2023-01-15T02:56:47.094Z,10.20
2023-01-15T02:59:21.378Z,10.27
2023-01-15T03:01:55.428Z,10.15
2023-01-15T03:04:37.422Z,9.95
2023-01-15T03:07:19.071Z,9.82
2023-01-15T03:09:47.844Z,9.85
2023-01-15T03:12:26.032Z,9.90
2023-01-15T03:15:42.572Z,9.90
2023-01-15T03:18:13.173Z,9.84
2023-01-15T03:20:51.061Z,9.83
2023-01-15T03:23:19.237Z,9.85
2023-01-15T03:25:49.411Z,9.82
2023-01-15T03:28:25.377Z,9.97
2023-01-15T03:30:53.108Z,10.00
2023-01-15T03:33:20.170Z,9.92
2023-01-15T03:35:55.951Z,9.90
2023-01-15T03:38:46.782Z,9.92
2023-01-15T03:41:59.575Z,9.91
2023-01-15T03:44:41.315Z,9.94
2023-01-15T03:47:42.866Z,9.86
2023-01-15T03:50:37.237Z,9.93
2023-01-15T03:53:15.811Z,9.83
2023-01-15T03:55:59.647Z,9.67
2023-01-15T03:58:39.585Z,9.60
2023-01-15T04:01:12.673Z,9.65
2023-01-15T04:03:42.451Z,9.55
2023-01-15T04:06:10.405Z,9.65
2023-01-15T04:08:40.765Z,9.70
2023-01-15T04:11:08.776Z,9.83
2023-01-15T04:13:46.087Z,9.71
2023-01-15T04:16:28.753Z,9.65
2023-01-15T04:18:55.465Z,9.64
2023-01-15T04:21:23.538Z,9.79
2023-01-15T04:23:50.279Z,9.73
2023-01-15T04:26:17.496Z,9.80
2023-01-15T04:28:44.212Z,9.71
2023-01-15T04:31:11.006Z,9.35
2023-01-15T04:33:39.991Z,9.58
2023-01-15T04:36:08.767Z,9.71
2023-01-15T04:38:38.407Z,9.64
2023-01-15T04:41:24.493Z,9.61
2023-01-15T04:44:09.335Z,9.68
2023-01-15T04:46:40.603Z,9.52
2023-01-15T04:49:13.399Z,9.74
2023-01-15T04:51:41.217Z,9.55
2023-01-15T04:54:09.400Z,9.47
2023-01-15T04:56:40.042Z,9.64
2023-01-15T04:59:07.045Z,9.67
2023-01-15T05:01:34.208Z,9.57
2023-01-15T05:04:01.762Z,9.60
2023-01-15T05:06:29.351Z,9.55
2023-01-15T05:08:56.003Z,9.48
2023-01-15T05:11:23.039Z,9.44
2023-01-15T05:13:49.702Z,9.32
2023-01-15T05:16:19.226Z,9.23
2023-01-15T05:18:47.195Z,9.22
2023-01-15T05:21:19.087Z,9.07
2023-01-15T05:23:47.496Z,9.13
2023-01-15T05:26:14.428Z,8.75
2023-01-15T05:28:41.151Z,8.87
2023-01-15T05:31:10.890Z,9.03
2023-01-15T05:33:38.670Z,9.00
2023-01-15T05:36:14.017Z,9.05
2023-01-15T05:38:41.431Z,9.05
2023-01-15T05:41:29.710Z,9.18
2023-01-15T05:43:59.621Z,9.18
2023-01-15T05:46:26.272Z,9.19
2023-01-15T05:48:53.003Z,8.98
2023-01-15T05:51:19.779Z,9.17
2023-01-15T05:53:46.397Z,9.16
2023-01-15T05:56:13.091Z,9.18
2023-01-15T05:58:39.722Z,8.98
2023-01-15T06:01:08.631Z,8.98
2023-01-15T06:03:35.663Z,8.93
2023-01-15T06:06:03.981Z,9.00
2023-01-15T06:08:31.004Z,8.96
2023-01-15T06:10:57.644Z,9.14
2023-01-15T06:13:24.251Z,9.15
2023-01-15T06:15:50.883Z,9.14
2023-01-15T06:18:17.521Z,8.89
2023-01-15T06:20:44.159Z,8.95
2023-01-15T06:23:10.777Z,8.87
2023-01-15T06:25:37.862Z,8.86
2023-01-15T06:28:06.183Z,8.97
2023-01-15T06:30:33.432Z,8.85
2023-01-15T06:33:00.619Z,8.86
2023-01-15T06:35:27.309Z,8.87
2023-01-15T06:37:53.943Z,8.75
2023-01-15T06:40:20.643Z,8.75
2023-01-15T06:43:05.789Z,8.77
2023-01-15T06:45:57.193Z,8.80
2023-01-15T06:48:25.194Z,8.57
2023-01-15T06:50:52.242Z,8.57
2023-01-15T06:53:19.501Z,8.66
2023-01-15T06:55:46.363Z,8.68
2023-01-15T06:58:13.293Z,8.68
2023-01-15T07:00:42.835Z,8.66
2023-01-15T07:03:09.635Z,8.54
2023-01-15T07:05:39.189Z,8.45
2023-01-15T07:08:05.889Z,8.30
2023-01-15T07:10:35.274Z,8.25
2023-01-15T07:13:02.070Z,8.29
2023-01-15T07:15:29.096Z,8.31
2023-01-15T07:17:56.765Z,8.25
2023-01-15T07:20:24.201Z,8.19
2023-01-15T07:22:53.790Z,8.16
2023-01-15T07:25:20.440Z,8.07
2023-01-15T07:27:48.275Z,7.99
2023-01-15T07:30:15.103Z,7.98
2023-01-15T07:32:41.929Z,7.80
2023-01-15T07:35:10.082Z,7.99
2023-01-15T07:37:37.720Z,7.88
2023-01-15T07:40:04.886Z,7.89
2023-01-15T07:42:49.763Z,7.90
2023-01-15T07:45:35.652Z,7.94
2023-01-15T07:48:20.918Z,7.94
2023-01-15T07:50:47.610Z,7.88
2023-01-15T07:53:14.309Z,7.69
2023-01-15T07:55:40.937Z,7.90
2023-01-15T07:58:07.509Z,7.93
2023-01-15T08:00:34.151Z,7.91
2023-01-15T08:03:01.245Z,7.93
2023-01-15T08:05:27.857Z,7.92
2023-01-15T08:07:54.524Z,7.73
2023-01-15T08:10:21.178Z,7.73
2023-01-15T08:13:08.472Z,7.59
2023-01-15T08:15:39.500Z,7.38
2023-01-15T08:18:07.198Z,7.45
2023-01-15T08:20:36.093Z,7.65
2023-01-15T08:23:02.961Z,7.48
2023-01-15T08:25:29.640Z,7.51
2023-01-15T08:27:56.566Z,7.41
2023-01-15T08:30:25.506Z,7.36
2023-01-15T08:32:52.692Z,7.40
2023-01-15T08:35:19.504Z,7.56
2023-01-15T08:37:46.139Z,7.64
2023-01-15T08:40:13.013Z,7.42
2023-01-15T08:42:40.541Z,7.24
2023-01-15T08:45:07.911Z,7.20
2023-01-15T08:47:34.582Z,7.41
2023-01-15T08:50:01.197Z,7.43
2023-01-15T08:52:29.965Z,7.27
2023-01-15T08:54:56.567Z,7.27
2023-01-15T08:57:23.153Z,7.43
2023-01-15T08:59:49.689Z,7.47
2023-01-15T09:02:17.597Z,7.59
2023-01-15T09:04:44.319Z,7.53
2023-01-15T09:07:12.621Z,7.42
2023-01-15T09:09:39.314Z,7.44
2023-01-15T09:12:06.031Z,7.39
2023-01-15T09:14:57.896Z,7.27
2023-01-15T09:17:19.146Z,7.31
2023-01-15T09:19:46.073Z,7.36
2023-01-15T09:22:12.655Z,7.34
2023-01-15T09:24:39.236Z,7.46
2023-01-15T09:27:05.840Z,7.43
2023-01-15T09:29:32.433Z,7.41
2023-01-15T09:31:59.121Z,7.34
2023-01-15T09:34:25.662Z,7.38
2023-01-15T09:36:52.380Z,7.58
2023-01-15T09:39:19.096Z,7.57
2023-01-15T09:42:19.216Z,7.57
2023-01-15T09:45:06.370Z,7.45
2023-01-15T09:47:59.161Z,7.50
2023-01-15T09:50:53.342Z,7.36
2023-01-15T09:54:08.186Z,7.43
2023-01-15T09:56:36.953Z,7.45
2023-01-15T09:59:16.545Z,7.45
2023-01-15T10:01:43.579Z,7.52
2023-01-15T10:04:40.780Z,7.49
2023-01-15T10:07:10.390Z,7.38
2023-01-15T10:09:41.048Z,7.45
2023-01-15T10:12:35.202Z,7.42
2023-01-15T10:15:14.074Z,7.53
2023-01-15T10:17:43.089Z,7.69
2023-01-15T10:20:15.630Z,7.84
2023-01-15T10:23:05.183Z,7.83
2023-01-15T10:25:56.451Z,7.86
2023-01-15T10:28:31.973Z,7.52
2023-01-15T10:31:18.911Z,7.11
2023-01-15T10:33:59.298Z,7.01
2023-01-15T10:36:33.776Z,6.98
2023-01-15T10:39:31.439Z,6.67
2023-01-15T10:42:21.467Z,6.81
2023-01-15T10:45:10.279Z,6.70
2023-01-15T10:47:38.973Z,7.06
2023-01-15T10:50:20.829Z,7.12
2023-01-15T10:52:56.270Z,7.10
2023-01-15T10:55:31.752Z,6.97
2023-01-15T10:58:11.566Z,7.02
2023-01-15T11:00:39.672Z,7.07
2023-01-15T11:03:43.227Z,6.75
2023-01-15T11:06:21.734Z,6.65
2023-01-15T11:09:12.657Z,6.60
2023-01-15T11:12:01.764Z,6.73
2023-01-15T11:15:01.221Z,6.65
2023-01-15T11:17:59.812Z,6.81
2023-01-15T11:20:32.132Z,6.85
2023-01-15T11:23:07.763Z,6.81
2023-01-15T11:25:34.493Z,6.85
2023-01-15T11:28:06.551Z,6.90
2023-01-15T11:30:37.835Z,6.99
2023-01-15T11:33:07.227Z,6.83
2023-01-15T11:35:34.487Z,6.26
2023-01-15T11:38:02.882Z,6.32
2023-01-15T11:40:30.188Z,6.42
2023-01-15T11:43:15.628Z,6.22
2023-01-15T11:46:09.063Z,6.07
2023-01-15T11:49:03.767Z,5.85
2023-01-15T11:51:35.625Z,6.04
2023-01-15T11:54:08.174Z,6.02
2023-01-15T11:56:36.138Z,5.99
2023-01-15T11:59:09.391Z,5.64
2023-01-15T12:01:42.179Z,5.93
2023-01-15T12:04:47.795Z,5.82
2023-01-15T12:07:15.002Z,5.91
2023-01-15T12:09:57.733Z,6.07
2023-01-15T12:13:01.464Z,5.86
2023-01-15T12:15:55.047Z,6.11
2023-01-15T12:18:31.942Z,5.90
2023-01-15T12:21:19.698Z,6.05
2023-01-15T12:23:55.773Z,5.87
2023-01-15T12:26:28.858Z,5.92
2023-01-15T12:29:13.409Z,6.07
2023-01-15T12:31:46.842Z,6.15
2023-01-15T12:34:25.688Z,5.87
2023-01-15T12:37:02.346Z,5.90
2023-01-15T12:39:43.039Z,6.00
2023-01-15T12:42:34.539Z,5.93
2023-01-15T12:45:07.680Z,6.10
2023-01-15T12:47:48.363Z,6.18
2023-01-15T12:50:32.652Z,6.31
2023-01-15T12:53:14.768Z,6.35
2023-01-15T12:55:54.289Z,6.40
2023-01-15T12:58:31.038Z,6.47
2023-01-15T13:01:06.880Z,6.54
2023-01-15T13:03:47.901Z,6.55
2023-01-15T13:06:16.915Z,6.62
2023-01-15T13:09:05.832Z,6.71
2023-01-15T13:11:32.891Z,6.82
2023-01-15T13:13:59.601Z,6.98
2023-01-15T13:16:54.402Z,7.06
2023-01-15T13:19:40.307Z,6.99
2023-01-15T13:22:15.464Z,7.02
2023-01-15T13:25:11.449Z,6.99
2023-01-15T13:27:56.416Z,7.03
2023-01-15T13:30:46.455Z,7.01
2023-01-15T13:33:29.847Z,7.11
2023-01-15T13:36:29.822Z,7.18
2023-01-15T13:39:00.648Z,7.29
2023-01-15T13:41:49.417Z,7.26
2023-01-15T13:44:20.147Z,7.35
2023-01-15T13:46:49.435Z,7.21
2023-01-15T13:49:32.063Z,7.24
2023-01-15T13:52:04.072Z,7.25
2023-01-15T13:54:32.865Z,7.31
2023-01-15T13:57:22.802Z,7.33
2023-01-15T13:59:50.741Z,7.42
2023-01-15T14:02:24.609Z,7.43
2023-01-15T14:04:51.771Z,7.37
2023-01-15T14:07:31.938Z,7.30
2023-01-15T14:10:24.192Z,7.34
2023-01-15T14:13:12.249Z,7.40
2023-01-15T14:15:58.441Z,7.39
2023-01-15T14:18:58.690Z,7.49
2023-01-15T14:21:43.945Z,7.60
2023-01-15T14:24:27.694Z,7.50
2023-01-15T14:27:26.837Z,7.50
2023-01-15T14:30:10.236Z,7.39
2023-01-15T14:32:59.071Z,7.63
2023-01-15T14:35:26.260Z,7.53
2023-01-15T14:37:57.528Z,7.49
2023-01-15T14:40:33.107Z,7.37
2023-01-15T14:43:07.659Z,7.28
2023-01-15T14:45:41.979Z,7.34
2023-01-15T14:48:20.575Z,7.58
2023-01-15T14:50:48.807Z,7.66
2023-01-15T14:53:32.811Z,7.83
2023-01-15T14:56:14.537Z,8.04
2023-01-15T14:59:08.795Z,7.67
2023-01-15T15:01:41.687Z,7.49
2023-01-15T15:04:39.312Z,7.41
2023-01-15T15:07:12.242Z,7.49
2023-01-15T15:09:43.879Z,7.37
2023-01-15T15:12:28.732Z,7.31
2023-01-15T15:15:03.162Z,7.29
2023-01-15T15:17:39.722Z,7.38
2023-01-15T15:20:58.096Z,7.37
2023-01-15T15:23:36.877Z,7.41
2023-01-15T15:26:06.977Z,7.21
2023-01-15T15:28:33.835Z,7.11
2023-01-15T15:31:01.573Z,7.04
2023-01-15T15:33:38.160Z,6.94
2023-01-15T15:36:07.288Z,6.80
2023-01-15T15:38:34.638Z,6.72
2023-01-15T15:41:05.129Z,6.76
2023-01-15T15:44:04.341Z,6.75
2023-01-15T15:46:51.474Z,6.71
2023-01-15T15:49:22.241Z,6.75
2023-01-15T15:51:53.753Z,6.74
2023-01-15T15:54:23.427Z,6.83
2023-01-15T15:57:17.006Z,6.83
2023-01-15T15:59:47.795Z,6.79
2023-01-15T16:02:36.490Z,6.78
2023-01-15T16:05:28.368Z,6.80
2023-01-15T16:07:55.295Z,6.84
2023-01-15T16:10:29.337Z,6.84
2023-01-15T16:12:59.983Z,6.75
2023-01-15T16:15:41.073Z,6.76
2023-01-15T16:18:23.642Z,6.81
2023-01-15T16:20:50.375Z,6.76
2023-01-15T16:23:25.747Z,6.77
2023-01-15T16:26:03.102Z,6.72
2023-01-15T16:28:49.802Z,6.77
2023-01-15T16:31:18.783Z,6.80
2023-01-15T16:33:59.176Z,6.81
2023-01-15T16:36:27.134Z,6.72
2023-01-15T16:38:55.124Z,6.76
2023-01-15T16:41:29.636Z,6.75
2023-01-15T16:44:01.221Z,6.75
2023-01-15T16:46:31.834Z,6.80
2023-01-15T16:49:29.472Z,6.74
2023-01-15T16:51:58.234Z,6.75
2023-01-15T16:54:31.008Z,6.67
2023-01-15T16:57:23.514Z,6.65
2023-01-15T16:59:57.596Z,6.78
2023-01-15T17:02:29.707Z,6.75
2023-01-15T17:04:56.671Z,6.74
2023-01-15T17:07:39.260Z,6.74
2023-01-15T17:10:19.934Z,6.73
2023-01-15T17:12:47.157Z,6.73
2023-01-15T17:15:16.529Z,6.70
2023-01-15T17:17:51.087Z,6.74
2023-01-15T17:20:20.073Z,6.80
2023-01-15T17:22:49.913Z,6.72
2023-01-15T17:25:21.495Z,6.74
2023-01-15T17:27:48.107Z,6.62
2023-01-15T17:30:15.743Z,6.69
2023-01-15T17:32:42.776Z,6.64
2023-01-15T17:35:30.600Z,6.64
2023-01-15T17:37:57.459Z,6.67
2023-01-15T17:40:25.258Z,6.67
2023-01-15T17:42:53.812Z,6.64
2023-01-15T17:45:28.593Z,6.63
2023-01-15T17:47:55.677Z,6.66
2023-01-15T17:50:23.034Z,6.69
2023-01-15T17:52:50.586Z,6.68
2023-01-15T17:55:39.186Z,6.73
2023-01-15T17:58:27.372Z,6.79
2023-01-15T18:01:13.056Z,6.76
2023-01-15T18:04:04.665Z,6.72
2023-01-15T18:06:31.753Z,6.78
2023-01-15T18:09:01.604Z,6.68
2023-01-15T18:11:28.639Z,6.67
2023-01-15T18:13:55.999Z,6.68
2023-01-15T18:16:23.475Z,6.68
2023-01-15T18:18:52.727Z,6.74
2023-01-15T18:21:20.177Z,6.72
2023-01-15T18:23:47.242Z,6.70
2023-01-15T18:26:14.191Z,6.70
2023-01-15T18:28:40.909Z,6.60
2023-01-15T18:31:08.998Z,6.60
2023-01-15T18:33:35.734Z,6.53
2023-01-15T18:36:13.903Z,6.50
2023-01-15T18:38:46.129Z,6.57
2023-01-15T18:41:34.128Z,6.51
2023-01-15T18:44:24.188Z,6.43
2023-01-15T18:46:54.224Z,6.42
2023-01-15T18:49:21.434Z,6.50
2023-01-15T18:52:06.850Z,6.49
2023-01-15T18:54:33.588Z,6.52
2023-01-15T18:57:00.583Z,6.57
2023-01-15T18:59:27.343Z,6.70
2023-01-15T19:01:56.235Z,6.55
2023-01-15T19:04:23.084Z,6.55
2023-01-15T19:06:50.240Z,6.64
2023-01-15T19:09:18.025Z,6.73
2023-01-15T19:11:44.839Z,6.57
2023-01-15T19:14:30.350Z,6.53
2023-01-15T19:17:15.560Z,6.57
2023-01-15T19:19:43.272Z,6.48
2023-01-15T19:22:29.035Z,6.48
2023-01-15T19:24:56.266Z,6.56
2023-01-15T19:27:23.166Z,6.61
2023-01-15T19:29:50.505Z,6.60
2023-01-15T19:32:17.505Z,6.58
2023-01-15T19:34:44.818Z,6.58
2023-01-15T19:37:11.480Z,6.43
2023-01-15T19:39:38.426Z,6.41
2023-01-15T19:42:24.123Z,6.19
2023-01-15T19:45:09.385Z,6.28
2023-01-15T19:48:01.452Z,6.38
2023-01-15T19:50:43.476Z,6.19
2023-01-15T19:53:13.179Z,6.25
2023-01-15T19:55:45.050Z,6.15
2023-01-15T19:58:13.892Z,6.22
2023-01-15T20:00:43.089Z,6.18
2023-01-15T20:03:12.169Z,6.21
2023-01-15T20:05:41.035Z,6.22
2023-01-15T20:08:12.475Z,6.26
2023-01-15T20:10:41.758Z,6.28
2023-01-15T20:13:45.363Z,6.31
2023-01-15T20:16:19.647Z,6.37
2023-01-15T20:18:50.236Z,6.26
2023-01-15T20:21:17.813Z,6.32
2023-01-15T20:23:44.952Z,6.32
2023-01-15T20:26:14.386Z,6.25
2023-01-15T20:28:42.641Z,6.27
2023-01-15T20:31:19.322Z,6.29
2023-01-15T20:33:47.788Z,6.28
2023-01-15T20:36:15.029Z,6.23
2023-01-15T20:38:41.639Z,6.34
2023-01-15T20:41:29.751Z,6.40
2023-01-15T20:44:14.826Z,6.29
2023-01-15T20:46:41.613Z,6.24
2023-01-15T20:49:28.861Z,6.43
2023-01-15T20:51:56.745Z,6.57
2023-01-15T20:54:25.647Z,6.57
2023-01-15T20:56:52.656Z,6.45
2023-01-15T20:59:19.563Z,6.46
2023-01-15T21:01:46.304Z,6.51
2023-01-15T21:04:13.731Z,6.46
2023-01-15T21:06:41.144Z,6.47
2023-01-15T21:09:08.095Z,6.45
2023-01-15T21:11:35.043Z,6.60
2023-01-15T21:14:01.762Z,6.39
2023-01-15T21:16:28.462Z,6.54
2023-01-15T21:18:55.557Z,6.64
2023-01-15T21:21:22.770Z,6.50
2023-01-15T21:23:50.250Z,6.62
2023-01-15T21:26:17.284Z,6.58
2023-01-15T21:28:44.722Z,6.62
2023-01-15T21:31:13.056Z,6.72
2023-01-15T21:33:42.494Z,6.63
2023-01-15T21:36:12.343Z,6.59
2023-01-15T21:38:39.866Z,6.49
2023-01-15T21:41:14.287Z,6.34
2023-01-15T21:44:01.027Z,6.47
2023-01-15T21:46:28.268Z,6.46
2023-01-15T21:48:56.208Z,6.49
2023-01-15T21:51:24.277Z,6.40
2023-01-15T21:53:50.899Z,6.38
2023-01-15T21:56:17.681Z,6.35
2023-01-15T21:58:44.232Z,6.48
2023-01-15T22:01:12.482Z,6.26
2023-01-15T22:03:40.145Z,6.33
2023-01-15T22:06:08.929Z,6.50
2023-01-15T22:08:35.832Z,6.48
2023-01-15T22:11:08.018Z,6.41
2023-01-15T22:13:36.546Z,6.47
2023-01-15T22:16:06.182Z,6.58
2023-01-15T22:18:33.980Z,6.55
2023-01-15T22:21:03.513Z,6.32
2023-01-15T22:23:30.218Z,6.45
2023-01-15T22:25:56.835Z,6.55
2023-01-15T22:28:23.736Z,6.62
2023-01-15T22:30:50.440Z,6.75
2023-01-15T22:33:17.235Z,6.85
2023-01-15T22:35:44.120Z,6.75
2023-01-15T22:38:10.710Z,6.66
2023-01-15T22:40:37.382Z,6.67
2023-01-15T22:43:04.035Z,6.93
2023-01-15T22:45:30.717Z,6.75
2023-01-15T22:47:57.290Z,6.65
2023-01-15T22:50:23.950Z,6.74
2023-01-15T22:52:50.543Z,6.73
2023-01-15T22:55:17.271Z,6.53
2023-01-15T22:57:43.980Z,6.60
2023-01-15T23:00:11.069Z,6.72
2023-01-15T23:02:56.245Z,6.60
2023-01-15T23:05:24.203Z,6.64
2023-01-15T23:07:51.146Z,6.59
2023-01-15T23:10:17.743Z,6.66
2023-01-15T23:12:44.407Z,6.48
2023-01-15T23:15:13.339Z,6.59
2023-01-15T23:17:40.581Z,6.66
2023-01-15T23:20:09.472Z,6.53
2023-01-15T23:22:36.146Z,6.43
2023-01-15T23:25:03.173Z,6.67
2023-01-15T23:27:30.289Z,6.67
2023-01-15T23:29:56.935Z,6.69
2023-01-15T23:32:23.517Z,6.53
2023-01-15T23:34:50.155Z,6.41
2023-01-15T23:37:16.926Z,6.46
2023-01-15T23:39:43.482Z,6.50
2023-01-15T23:42:29.877Z,6.46
2023-01-15T23:45:15.242Z,6.29
2023-01-15T23:47:41.814Z,6.54
2023-01-15T23:50:08.854Z,6.34
2023-01-15T23:52:35.503Z,6.54
2023-01-15T23:55:02.189Z,6.62
2023-01-15T23:57:30.292Z,6.51
2023-01-15T23:59:56.855Z,6.50
